• Join FlightAware (Why Join?)
  • Login
  • US Flag 
12:55AM EDT


 

Airport Tracker/Info


-or-


 

Live Flight TrackerFlight Track Log ✈ UAL4476 ✈ 02-May-2013 ✈ KBOS - KCLE

Flight Track Log - Related Links

Times and Time Zones

All times are in EDT time to prevent confusion due to time zone crossing. See the UAL4476 flight status page for this flight to view local times or setup timezone preferences in your user account.

Time Position Orientation Groundspeed Altitude Reporting Facility
EDT Latitude Longitude Course Direction KTS MPH feet Rate Location/Type
11:19AM 42.3833 -70.9000 75° East 194 223 3,300  Level KA90
11:21AM 42.4094 -70.8008 70° East 243 280 6,500 1,800 Climbing Boston Center
11:22AM 42.4736 -70.7736 17° North 219 252 8,000 1,200 Climbing Boston Center
11:23AM 42.5394 -70.8481 320° Northwest 187 215 9,000 1,260 Climbing Boston Center
11:24AM 42.5861 -70.9286 308° West 241 277 10,600 1,380 Climbing Boston Center
11:25AM 42.6458 -71.0317 308° West 315 362 11,800 1,440 Climbing Boston Center
11:26AM 42.7014 -71.1319 307° West 336 387 13,500 1,500 Climbing Boston Center
11:27AM 42.7464 -71.2497 298° West 342 394 14,900 1,200 Climbing Boston Center
11:28AM 42.7622 -71.3881 279° West 360 414 15,900 1,020 Climbing Boston Center
11:29AM 42.7761 -71.5350 277° West 389 448 17,000 1,020 Climbing Boston Center
11:30AM 42.7917 -71.6847 278° West 402 463 18,000 960 Climbing Boston Center
11:31AM 42.8072 -71.8372 278° West 407 468 19,000 1,080 Climbing Boston Center
11:32AM 42.8225 -71.9703 279° West 407 468 20,200 1,320 Climbing Boston Center
11:33AM 42.8375 -72.1172 278° West 407 468 21,700 1,500 Climbing Boston Center
11:34AM 42.8589 -72.2844 280° West 407 468 23,200 1,440 Climbing Boston Center
11:35AM 42.8714 -72.4344 277° West 407 468 24,600 1,440 Climbing Boston Center
11:36AM 42.8881 -72.5817 279° West 407 468 26,100 1,440 Climbing Boston Center
11:37AM 42.8939 -72.7264 273° West 402 463 27,500 1,380 Climbing Boston Center
11:38AM 42.9039 -72.8708 275° West 395 455 28,900 1,260 Climbing Boston Center
11:39AM 42.9075 -73.0014 272° West 395 455 30,100 1,260 Climbing Boston Center
11:40AM 42.9108 -73.1489 272° West 395 455 31,500 1,260 Climbing Boston Center
11:41AM 42.9119 -73.2933 271° West 389 448 32,700 1,020 Climbing Boston Center
11:42AM 42.9089 -73.4236 268° West 383 441 33,600 600 Climbing Boston Center
11:43AM 42.9094 -73.5769 270° West 389 448 34,000 180 Climbing Boston Center
11:44AM 42.9114 -73.7753 271° West 417 480 34,000  Level Boston Center
11:45AM 42.9136 -73.9456 271° West 432 497 34,000  Level Boston Center
11:46AM 42.9153 -74.1128 271° West 440 506 34,000  Level Boston Center
11:47AM 42.9150 -74.2800 270° West 445 512 34,000  Level Boston Center
11:48AM 42.9161 -74.4472 271° West 445 512 34,000  Level Boston Center
11:49AM 42.9175 -74.6119 271° West 440 506 34,000  Level Boston Center
11:50AM 42.9183 -74.7792 270° West 440 506 34,000  Level Boston Center
11:51AM 42.9167 -74.9464 269° West 440 506 34,000  Level Boston Center
11:52AM 42.9150 -75.1164 269° West 440 506 34,000  Level Boston Center
11:53AM 42.9150 -75.2867 270° West 440 506 34,000  Level Boston Center
11:54AM 42.9131 -75.4481 269° West 439 505 34,000  Level Boston Center
11:55AM 42.9128 -75.6125 270° West 439 505 34,000  Level Boston Center
11:56AM 42.9122 -75.7769 270° West 439 505 34,000  Level Boston Center
11:58AM 42.9083 -76.0842 269° West 448 516 34,000  Level Cleveland Center
11:59AM 42.9064 -76.2486 269° West 442 509 34,000  Level Cleveland Center
12:00PM 42.9019 -76.4136 268° West 442 509 34,000  Level Cleveland Center
12:01PM 42.9014 -76.5781 270° West 442 509 34,000  Level Cleveland Center
12:02PM 42.8975 -76.7086 268° West 442 509 34,000  Level Cleveland Center
12:03PM 42.8950 -76.8817 269° West 436 502 34,000  Level Cleveland Center
12:04PM 42.8894 -77.0381 267° West 425 489 34,000  Level Cleveland Center
12:05PM 42.8375 -77.1797 243° Southwest 403 464 34,000  Level Cleveland Center
12:06PM 42.7789 -77.3158 240° Southwest 409 471 34,000  Level Cleveland Center
12:07PM 42.7200 -77.4517 239° Southwest 422 486 34,000  Level Cleveland Center
12:08PM 42.6511 -77.6106 240° Southwest 445 512 34,000  Level Cleveland Center
12:09PM 42.5922 -77.7486 240° Southwest 439 505 34,000  Level Cleveland Center
12:10PM 42.5328 -77.8839 239° Southwest 433 498 34,000  Level Cleveland Center
12:11PM 42.4756 -78.0158 240° Southwest 427 491 34,000  Level Cleveland Center
12:12PM 42.4178 -78.1503 240° Southwest 421 484 34,000  Level Cleveland Center
12:13PM 42.3561 -78.2875 239° Southwest 421 484 34,000  Level Cleveland Center
12:14PM 42.2942 -78.4300 240° Southwest 433 498 34,000  Level Cleveland Center
12:15PM 42.2342 -78.5697 240° Southwest 439 505 34,000  Level Cleveland Center
12:16PM 42.1758 -78.6919 237° Southwest 433 498 34,000 -300 Level Cleveland Center
12:17PM 42.1217 -78.8336 243° Southwest 433 498 33,500 -900 Descending Cleveland Center
12:18PM 42.0825 -78.9969 252° West 421 484 32,300 -1,140 Descending Cleveland Center
12:19PM 42.0447 -79.1489 252° West 426 490 31,300 -1,080 Descending Cleveland Center
12:20PM 42.0050 -79.3006 251° West 432 497 30,200 -1,080 Descending Cleveland Center
12:21PM 41.9669 -79.4550 252° West 432 497 29,200 -1,080 Descending Cleveland Center
12:22PM 41.9267 -79.6092 251° West 432 497 28,100 -1,020 Descending Cleveland Center
12:23PM 41.8922 -79.7519 252° West 443 510 27,200 -1,080 Descending Cleveland Center
12:24PM 41.8497 -79.9086 250° West 443 510 26,000 -1,440 Descending Cleveland Center
12:25PM 41.8086 -80.0678 251° West 449 517 24,400 -1,620 Descending Cleveland Center
12:26PM 41.7656 -80.2408 252° West 450 518 22,800 -1,680 Descending Cleveland Center
12:27PM 41.7242 -80.3883 249° West 445 512 21,100 -1,800 Descending Cleveland Center
12:28PM 41.6847 -80.5386 251° West 434 499 19,200 -1,860 Descending Cleveland Center
12:29PM 41.6472 -80.6803 251° West 420 483 17,400 -2,220 Descending Cleveland Center
12:30PM 41.6094 -80.8164 250° West 408 470 14,800 -2,580 Descending Cleveland Center
12:30PM 41.5864 -80.9053 251° West 386 444 13,100 -2,520 Descending Cleveland Center
12:31PM 41.5736 -80.9522 250° West 397 457 12,300 -2,220 Descending Cleveland Center
12:31PM 41.5569 -81.0189 252° West 363 418 11,100 -1,740 Descending Cleveland Center
12:32PM 41.5400 -81.0797 250° West 383 441 10,600 -780 Descending Cleveland Center
12:33PM 41.5144 -81.1850 252° West 349 402 10,100 -480 Descending Cleveland Center
12:34PM 41.5156 -81.3181 271° West 327 376 9,700 -960 Descending Cleveland Center
12:35PM 41.5214 -81.4122 275° West 271 312 8,200 -1,800 Descending Cleveland Center
12:36PM 41.5394 -81.5069 284° West 277 319 6,400 -1,800 Descending Cleveland Center
12:36PM 41.5553 -81.5875 285° West 274 315 5,000 -1,560 Descending Cleveland Center
12:37PM 41.5489 -81.6153 253° West 277 319 4,600 -1,140 Descending Cleveland Center
12:37PM 41.5297 -81.6619 241° Southwest 247 284 4,100 -720 Descending Cleveland Center
12:38PM 41.5147 -81.6842 228° Southwest 247 284 3,900 -1,140 Descending Cleveland Center
12:38PM 41.4872 -81.7278 230° Southwest 241 277 3,000 -1,200 Descending Cleveland Center
12:39PM 41.4725 -81.7469 224° Southwest 236 272 2,700 -1,020 Descending Cleveland Center
12:39PM 41.4556 -81.7772 233° Southwest 154 177 2,000 -900 Descending Cleveland Center
12:40PM 41.4469 -81.7936 235° Southwest 195 224 1,800 -720 Descending Cleveland Center
12:40PM 41.4281 -81.8183 224° Southwest 134 154 1,300 -900 Descending Cleveland Center
12:42PM 41.4000 -81.8500 252° West  Level FlightAware Approximate
12:49PM 41.4094 -81.8547 252° West  Level Estimated